createdAt,value
2017-12-16T00:00:19.365Z,99392.27
2017-12-16T00:02:48.668Z,99394.06
2017-12-16T00:05:17.764Z,99389.92
2017-12-16T00:07:46.873Z,99400.27
2017-12-16T00:10:16.004Z,99390.73
2017-12-16T00:12:44.343Z,99395.34
2017-12-16T00:15:13.622Z,99391.73
2017-12-16T00:17:41.973Z,99388.97
2017-12-16T00:20:10.392Z,99385.14
2017-12-16T00:22:39.470Z,99388.56
2017-12-16T00:25:07.841Z,99397.26
2017-12-16T00:27:36.168Z,99391.91
2017-12-16T00:30:04.508Z,99392.82
2017-12-16T00:32:32.856Z,99394.33
2017-12-16T00:35:01.186Z,99397.34
2017-12-16T00:37:29.516Z,99407.14
2017-12-16T00:39:57.874Z,99403.50
2017-12-16T00:42:26.257Z,99397.41
2017-12-16T00:44:54.556Z,99397.08
2017-12-16T00:47:22.914Z,99395.16
2017-12-16T00:49:51.223Z,99404.50
2017-12-16T00:52:19.634Z,99396.84
2017-12-16T00:54:48.009Z,99400.96
2017-12-16T00:57:16.411Z,99400.24
2017-12-16T00:59:44.724Z,99395.03
2017-12-16T01:02:13.076Z,99398.59
2017-12-16T01:04:41.435Z,99402.94
2017-12-16T01:07:09.757Z,99405.63
2017-12-16T01:09:38.118Z,99405.48
2017-12-16T01:12:06.531Z,99402.20
2017-12-16T01:14:34.888Z,99394.25
2017-12-16T01:17:03.225Z,99400.20
2017-12-16T01:19:31.557Z,99404.20
2017-12-16T01:22:00.692Z,99408.93
2017-12-16T01:24:29.137Z,99413.27
2017-12-16T01:26:58.264Z,99411.33
2017-12-16T01:29:26.642Z,99407.64
2017-12-16T01:31:54.976Z,99429.03
2017-12-16T01:34:41.180Z,99431.05
2017-12-16T01:37:27.190Z,99444.69
2017-12-16T01:39:56.469Z,99445.03
2017-12-16T01:42:24.797Z,99447.50
2017-12-16T01:44:53.132Z,99444.39
2017-12-16T01:47:22.244Z,99447.83
2017-12-16T01:49:50.565Z,99449.17
2017-12-16T01:52:18.909Z,99446.58
2017-12-16T01:54:47.304Z,99452.34
2017-12-16T01:57:15.645Z,99455.22
2017-12-16T01:59:44.769Z,99452.55
2017-12-16T02:02:13.080Z,99457.09
2017-12-16T02:04:41.556Z,99461.63
2017-12-16T02:07:09.942Z,99464.08
2017-12-16T02:09:38.285Z,99455.02
2017-12-16T02:12:06.599Z,99462.73
2017-12-16T02:14:34.953Z,99467.70
2017-12-16T02:17:03.292Z,99463.55
2017-12-16T02:19:31.655Z,99466.65
2017-12-16T02:22:00.828Z,99474.58
2017-12-16T02:24:29.152Z,99471.19
2017-12-16T02:26:57.554Z,99477.88
2017-12-16T02:29:25.941Z,99481.79
2017-12-16T02:31:54.327Z,99479.84
2017-12-16T02:34:22.647Z,99488.58
2017-12-16T02:36:51.769Z,99489.61
2017-12-16T02:39:20.108Z,99483.83
2017-12-16T02:41:49.213Z,99484.48
2017-12-16T02:44:18.300Z,99483.48
2017-12-16T02:46:47.388Z,99481.22
2017-12-16T02:49:15.749Z,99485.13
2017-12-16T02:51:44.070Z,99483.05
2017-12-16T02:54:12.385Z,99480.99
2017-12-16T02:56:40.719Z,99484.06
2017-12-16T02:59:09.894Z,99492.70
2017-12-16T03:01:39.091Z,99489.93
2017-12-16T03:04:07.461Z,99498.05
2017-12-16T03:06:35.768Z,99499.31
2017-12-16T03:09:04.880Z,99503.61
2017-12-16T03:11:33.244Z,99501.12
2017-12-16T03:14:01.620Z,99505.25
2017-12-16T03:16:30.180Z,99508.98
2017-12-16T03:18:58.524Z,99505.87
2017-12-16T03:21:26.856Z,99500.52
2017-12-16T03:23:55.229Z,99507.92
2017-12-16T03:26:24.345Z,99507.96
2017-12-16T03:28:52.780Z,99505.48
2017-12-16T03:31:21.109Z,99508.47
2017-12-16T03:33:49.447Z,99509.41
2017-12-16T03:36:17.832Z,99509.51
2017-12-16T03:38:46.912Z,99517.66
2017-12-16T03:41:15.240Z,99517.41
2017-12-16T03:43:43.567Z,99522.42
2017-12-16T03:46:12.690Z,99526.45
2017-12-16T03:48:41.020Z,99526.66
2017-12-16T03:51:09.580Z,99526.52
2017-12-16T03:53:37.919Z,99528.49
2017-12-16T03:56:06.280Z,99531.98
2017-12-16T03:58:34.605Z,99527.97
2017-12-16T04:01:02.951Z,99533.22
2017-12-16T04:03:32.055Z,99534.59
2017-12-16T04:06:00.412Z,99529.73
2017-12-16T04:08:29.523Z,99532.08
2017-12-16T04:10:57.831Z,99541.05
2017-12-16T04:13:26.156Z,99537.38
2017-12-16T04:15:54.497Z,99536.87
2017-12-16T04:18:22.828Z,99531.80
2017-12-16T04:20:51.932Z,99538.12
2017-12-16T04:23:20.281Z,99530.48
2017-12-16T04:25:48.605Z,99530.38
2017-12-16T04:28:16.943Z,99526.33
2017-12-16T04:30:46.170Z,99527.89
2017-12-16T04:33:14.496Z,99538.13
2017-12-16T04:35:42.863Z,99536.40
2017-12-16T04:38:11.184Z,99532.80
2017-12-16T04:40:39.512Z,99534.03
2017-12-16T04:43:07.888Z,99536.70
2017-12-16T04:45:36.212Z,99536.30
2017-12-16T04:48:05.305Z,99533.02
2017-12-16T04:50:34.431Z,99538.05
2017-12-16T04:53:02.769Z,99544.73
2017-12-16T04:55:31.860Z,99537.96
2017-12-16T04:58:00.981Z,99535.77
2017-12-16T05:00:29.316Z,99535.28
2017-12-16T05:02:57.704Z,99539.39
2017-12-16T05:05:26.061Z,99547.31
2017-12-16T05:07:54.382Z,99541.15
2017-12-16T05:10:23.556Z,99546.69
2017-12-16T05:12:51.959Z,99549.77
2017-12-16T05:15:21.092Z,99544.83
2017-12-16T05:17:49.413Z,99543.48
2017-12-16T05:20:18.524Z,99553.30
2017-12-16T05:22:47.639Z,99549.36
2017-12-16T05:25:15.960Z,99553.17
2017-12-16T05:27:44.367Z,99557.59
2017-12-16T05:30:13.448Z,99557.49
2017-12-16T05:32:42.535Z,99561.08
2017-12-16T05:35:10.886Z,99559.53
2017-12-16T05:37:39.203Z,99562.01
2017-12-16T05:40:08.300Z,99559.45
2017-12-16T05:42:37.414Z,99565.24
2017-12-16T05:45:05.747Z,99567.19
2017-12-16T05:47:34.094Z,99573.05
2017-12-16T05:50:02.539Z,99569.05
2017-12-16T05:52:31.730Z,99568.22
2017-12-16T05:55:00.815Z,99571.52
2017-12-16T05:57:29.171Z,99567.11
2017-12-16T05:59:57.596Z,99572.03
2017-12-16T06:02:26.680Z,99576.47
2017-12-16T06:04:55.792Z,99575.42
2017-12-16T06:07:24.139Z,99574.49
2017-12-16T06:09:52.557Z,99570.36
2017-12-16T06:12:20.952Z,99580.66
2017-12-16T06:14:49.282Z,99572.84
2017-12-16T06:17:18.420Z,99580.02
2017-12-16T06:19:46.767Z,99563.14
2017-12-16T06:22:15.864Z,99566.55
2017-12-16T06:24:44.344Z,99569.63
2017-12-16T06:27:13.517Z,99575.30
2017-12-16T06:29:42.616Z,99569.84
2017-12-16T06:32:10.948Z,99578.10
2017-12-16T06:34:39.345Z,99583.16
2017-12-16T06:37:07.663Z,99583.67
2017-12-16T06:39:35.988Z,99580.48
2017-12-16T06:42:04.352Z,99584.29
2017-12-16T06:44:32.677Z,99590.69
2017-12-16T06:47:01.028Z,99598.09
2017-12-16T06:49:29.385Z,99602.03
2017-12-16T06:51:57.716Z,99602.11
2017-12-16T06:54:26.816Z,99603.38
2017-12-16T06:56:55.932Z,99606.25
2017-12-16T06:59:24.252Z,99593.48
2017-12-16T07:01:52.586Z,99607.98
2017-12-16T07:04:20.946Z,99604.89
2017-12-16T07:06:50.034Z,99608.80
2017-12-16T07:09:19.156Z,99612.00
2017-12-16T07:11:47.523Z,99612.11
2017-12-16T07:14:16.620Z,99616.33
2017-12-16T07:16:45.738Z,99614.40
2017-12-16T07:19:14.095Z,99614.47
2017-12-16T07:21:42.455Z,99617.37
2017-12-16T07:24:10.773Z,99630.13
2017-12-16T07:26:39.109Z,99634.55
2017-12-16T07:29:07.440Z,99629.60
2017-12-16T07:31:35.816Z,99634.21
2017-12-16T07:34:04.140Z,99634.55
2017-12-16T07:36:33.247Z,99631.45
2017-12-16T07:39:02.363Z,99638.75
2017-12-16T07:41:30.704Z,99642.28
2017-12-16T07:43:59.036Z,99649.80
2017-12-16T07:46:27.467Z,99654.94
2017-12-16T07:48:56.565Z,99653.82
2017-12-16T07:51:25.746Z,99657.33
2017-12-16T07:53:54.101Z,99658.19
2017-12-16T07:56:22.431Z,99660.34
2017-12-16T07:58:50.755Z,99660.35
2017-12-16T08:01:19.120Z,99666.22
2017-12-16T08:03:47.435Z,99668.67
2017-12-16T08:06:15.771Z,99673.79
2017-12-16T08:08:44.154Z,99675.76
2017-12-16T08:11:13.292Z,99675.00
2017-12-16T08:13:41.685Z,99675.21
2017-12-16T08:16:10.846Z,99676.58
2017-12-16T08:18:39.176Z,99684.06
2017-12-16T08:21:07.540Z,99688.41
2017-12-16T08:23:35.865Z,99690.66
2017-12-16T08:26:04.255Z,99690.22
2017-12-16T08:28:32.655Z,99696.14
2017-12-16T08:31:02.328Z,99703.42
2017-12-16T08:33:30.747Z,99706.69
2017-12-16T08:35:59.071Z,99707.29
2017-12-16T08:38:27.396Z,99712.82
2017-12-16T08:40:55.735Z,99717.39
2017-12-16T08:43:24.057Z,99720.89
2017-12-16T08:45:53.157Z,99716.84
2017-12-16T08:48:22.326Z,99727.02
2017-12-16T08:50:50.645Z,99739.70
2017-12-16T08:53:18.968Z,99747.88
2017-12-16T08:55:47.346Z,99747.38
2017-12-16T08:58:15.685Z,99749.84
2017-12-16T09:00:44.008Z,99752.27
2017-12-16T09:03:12.396Z,99753.45
2017-12-16T09:05:40.724Z,99754.42
2017-12-16T09:08:09.212Z,99759.11
2017-12-16T09:10:37.616Z,99754.05
2017-12-16T09:13:05.953Z,99770.26
2017-12-16T09:15:35.445Z,99770.31
2017-12-16T09:18:03.815Z,99772.66
2017-12-16T09:20:32.911Z,99780.98
2017-12-16T09:23:02.263Z,99780.93
2017-12-16T09:25:31.461Z,99778.72
2017-12-16T09:27:59.783Z,99782.58
2017-12-16T09:30:28.906Z,99781.59
2017-12-16T09:32:57.408Z,99779.34
2017-12-16T09:35:25.727Z,99789.19
2017-12-16T09:37:54.059Z,99793.28
2017-12-16T09:40:22.432Z,99792.12
2017-12-16T09:42:50.869Z,99799.73
2017-12-16T09:45:19.972Z,99799.45
2017-12-16T09:47:48.299Z,99790.26
2017-12-16T09:50:16.665Z,99804.95
2017-12-16T09:52:44.977Z,99793.92
2017-12-16T09:55:14.076Z,99791.63
2017-12-16T09:57:43.954Z,99792.84
2017-12-16T10:00:12.311Z,99795.83
2017-12-16T10:02:40.878Z,99798.64
2017-12-16T10:05:09.294Z,99791.98
2017-12-16T10:07:37.625Z,99795.65
2017-12-16T10:10:06.709Z,99793.42
2017-12-16T10:12:35.815Z,99797.88
2017-12-16T10:15:04.915Z,99806.25
2017-12-16T10:17:34.019Z,99800.72
2017-12-16T10:20:02.376Z,99807.85
2017-12-16T10:22:31.488Z,99805.58
2017-12-16T10:25:00.595Z,99804.89
2017-12-16T10:27:28.928Z,99810.96
2017-12-16T10:29:57.277Z,99812.53
2017-12-16T10:32:25.620Z,99819.45
2017-12-16T10:34:53.937Z,99821.08
2017-12-16T10:37:22.298Z,99828.30
2017-12-16T10:39:50.675Z,99821.03
2017-12-16T10:42:19.040Z,99828.42
2017-12-16T10:44:47.481Z,99828.19
2017-12-16T10:47:16.648Z,99834.16
2017-12-16T10:49:44.998Z,99837.59
2017-12-16T10:52:13.345Z,99839.31
2017-12-16T10:54:42.456Z,99841.33
2017-12-16T10:57:10.806Z,99838.19
2017-12-16T10:59:39.934Z,99841.11
2017-12-16T11:02:08.268Z,99842.31
2017-12-16T11:04:36.841Z,99852.14
2017-12-16T11:07:05.228Z,99848.61
2017-12-16T11:09:33.651Z,99851.28
2017-12-16T11:12:02.063Z,99859.64
2017-12-16T11:14:30.423Z,99853.67
2017-12-16T11:16:58.757Z,99854.50
2017-12-16T11:19:27.895Z,99854.80
2017-12-16T11:21:56.224Z,99862.61
2017-12-16T11:24:25.315Z,99852.31
2017-12-16T11:26:53.676Z,99850.82
2017-12-16T11:29:22.017Z,99855.81
2017-12-16T11:31:50.352Z,99855.30
2017-12-16T11:34:19.456Z,99858.46
2017-12-16T11:36:48.557Z,99861.63
2017-12-16T11:39:16.926Z,99859.84
2017-12-16T11:41:46.020Z,99861.38
2017-12-16T11:44:15.140Z,99861.95
2017-12-16T11:46:43.616Z,99854.22
2017-12-16T11:49:11.959Z,99858.17
2017-12-16T11:51:41.053Z,99859.98
2017-12-16T11:54:09.428Z,99864.55
2017-12-16T11:56:38.537Z,99862.66
2017-12-16T11:59:07.648Z,99863.53
2017-12-16T12:01:36.753Z,99866.09
2017-12-16T12:04:05.118Z,99867.48
2017-12-16T12:06:34.233Z,99867.59
2017-12-16T12:09:02.588Z,99869.39
2017-12-16T12:11:31.692Z,99880.42
2017-12-16T12:14:00.851Z,99876.80
2017-12-16T12:16:29.259Z,99878.34
2017-12-16T12:18:58.344Z,99877.11
2017-12-16T12:21:27.513Z,99878.87
2017-12-16T12:23:55.883Z,99885.70
2017-12-16T12:26:24.215Z,99882.56
2017-12-16T12:28:53.319Z,99881.19
2017-12-16T12:31:21.689Z,99888.05
2017-12-16T12:33:50.013Z,99887.24
2017-12-16T12:36:18.394Z,99884.73
2017-12-16T12:38:46.721Z,99891.44
2017-12-16T12:41:15.103Z,99893.11
2017-12-16T12:43:43.465Z,99892.50
2017-12-16T12:46:12.560Z,99888.78
2017-12-16T12:48:41.692Z,99886.23
2017-12-16T12:51:10.048Z,99892.41
2017-12-16T12:53:38.405Z,99896.23
2017-12-16T12:56:07.503Z,99899.40
2017-12-16T12:58:36.614Z,99897.52
2017-12-16T13:01:05.740Z,99899.78
2017-12-16T13:03:34.072Z,99894.30
2017-12-16T13:06:03.192Z,99896.33
2017-12-16T13:08:31.511Z,99899.98
2017-12-16T13:10:59.832Z,99906.90
2017-12-16T13:13:28.197Z,99898.52
2017-12-16T13:15:57.307Z,99888.19
2017-12-16T13:18:25.645Z,99895.20
2017-12-16T13:20:53.984Z,99894.77
2017-12-16T13:23:22.304Z,99901.84
2017-12-16T13:25:50.666Z,99912.45
2017-12-16T13:28:19.021Z,99903.57
2017-12-16T13:30:47.365Z,99901.50
2017-12-16T13:33:15.861Z,99903.61
2017-12-16T13:35:44.197Z,99907.45
2017-12-16T13:38:12.521Z,99906.12
2017-12-16T13:40:40.885Z,99912.92
2017-12-16T13:43:09.254Z,99918.50
2017-12-16T13:45:38.381Z,99925.02
2017-12-16T13:48:06.736Z,99933.05
2017-12-16T13:50:35.491Z,99929.80
2017-12-16T13:53:03.864Z,99929.38
2017-12-16T13:55:32.256Z,99939.75
2017-12-16T13:58:00.944Z,99947.02
2017-12-16T14:00:30.113Z,99947.25
2017-12-16T14:02:58.542Z,99946.84
2017-12-16T14:05:26.900Z,99953.50
2017-12-16T14:07:55.427Z,99956.00
2017-12-16T14:10:23.864Z,99963.56
2017-12-16T14:12:52.993Z,99968.10
2017-12-16T14:15:21.817Z,99967.19
2017-12-16T14:17:50.200Z,99968.12
2017-12-16T14:20:18.578Z,99970.19
2017-12-16T14:22:46.945Z,99973.92
2017-12-16T14:25:16.712Z,99977.55
2017-12-16T14:27:45.114Z,99985.70
2017-12-16T14:30:13.436Z,99989.05
2017-12-16T14:32:41.821Z,99987.20
2017-12-16T14:35:10.939Z,100001.05
2017-12-16T14:37:39.260Z,99995.88
2017-12-16T14:40:07.640Z,100005.72
2017-12-16T14:42:35.984Z,100006.65
2017-12-16T14:45:04.312Z,100010.27
2017-12-16T14:47:32.685Z,100014.81
2017-12-16T14:50:01.016Z,100022.27
2017-12-16T14:52:29.361Z,100025.96
2017-12-16T14:54:57.733Z,100029.40
2017-12-16T14:57:26.061Z,100034.66
2017-12-16T14:59:54.389Z,100031.97
2017-12-16T15:02:22.797Z,100034.66
2017-12-16T15:04:51.136Z,100039.81
2017-12-16T15:07:19.470Z,100045.94
2017-12-16T15:09:48.641Z,100040.84
2017-12-16T15:12:18.489Z,100045.52
2017-12-16T15:14:46.819Z,100044.05
2017-12-16T15:17:15.928Z,100045.81
2017-12-16T15:19:44.268Z,100055.03
2017-12-16T15:22:12.644Z,100056.97
2017-12-16T15:24:41.009Z,100060.59
2017-12-16T15:27:09.338Z,100056.16
2017-12-16T15:29:37.715Z,100061.31
2017-12-16T15:32:06.072Z,100055.74
2017-12-16T15:34:35.180Z,100059.67
2017-12-16T15:37:04.480Z,100057.69
2017-12-16T15:39:33.597Z,100065.56
2017-12-16T15:42:01.928Z,100068.14
2017-12-16T15:44:30.276Z,100070.20
2017-12-16T15:46:58.648Z,100077.97
2017-12-16T15:49:26.985Z,100076.51
2017-12-16T15:51:57.035Z,100078.28
2017-12-16T15:54:25.408Z,100076.95
2017-12-16T15:56:53.792Z,100075.50
2017-12-16T15:59:22.296Z,100084.08
2017-12-16T16:01:50.724Z,100081.39
2017-12-16T16:04:19.114Z,100093.38
2017-12-16T16:06:47.511Z,100098.55
2017-12-16T16:09:15.860Z,100102.77
2017-12-16T16:11:44.257Z,100104.02
2017-12-16T16:14:12.754Z,100108.47
2017-12-16T16:16:41.095Z,100108.36
2017-12-16T16:19:09.433Z,100111.16
2017-12-16T16:21:37.782Z,100114.44
2017-12-16T16:24:06.118Z,100105.04
2017-12-16T16:26:35.371Z,100118.28
2017-12-16T16:29:03.762Z,100120.56
2017-12-16T16:31:32.090Z,100128.63
2017-12-16T16:34:00.410Z,100126.13
2017-12-16T16:36:28.803Z,100126.45
2017-12-16T16:38:57.165Z,100132.66
2017-12-16T16:41:25.516Z,100133.48
2017-12-16T16:43:53.867Z,100135.55
2017-12-16T16:46:22.239Z,100144.86
2017-12-16T16:48:51.339Z,100150.83
2017-12-16T16:51:19.757Z,100149.48
2017-12-16T16:53:48.089Z,100151.53
2017-12-16T16:56:17.175Z,100153.92
2017-12-16T16:58:46.315Z,100151.88
2017-12-16T17:01:14.640Z,100151.98
2017-12-16T17:03:42.987Z,100157.43
2017-12-16T17:06:11.396Z,100163.19
2017-12-16T17:08:39.735Z,100171.33
2017-12-16T17:11:08.072Z,100169.05
2017-12-16T17:13:36.445Z,100166.66
2017-12-16T17:16:05.539Z,100174.42
2017-12-16T17:18:34.697Z,100171.64
2017-12-16T17:21:03.052Z,100171.03
2017-12-16T17:23:31.384Z,100181.48
2017-12-16T17:26:00.475Z,100184.04
2017-12-16T17:28:29.601Z,100186.43
2017-12-16T17:30:57.927Z,100187.66
2017-12-16T17:33:26.245Z,100184.45
2017-12-16T17:35:54.604Z,100198.48
2017-12-16T17:38:23.733Z,100194.90
2017-12-16T17:40:52.067Z,100197.35
2017-12-16T17:43:21.191Z,100201.84
2017-12-16T17:45:50.294Z,100200.38
2017-12-16T17:48:18.677Z,100205.94
2017-12-16T17:50:47.020Z,100204.19
2017-12-16T17:53:15.359Z,100212.64
2017-12-16T17:55:43.788Z,100211.30
2017-12-16T17:58:12.896Z,100213.55
2017-12-16T18:00:41.250Z,100214.19
2017-12-16T18:03:09.655Z,100218.33
2017-12-16T18:05:38.764Z,100220.58
2017-12-16T18:08:07.103Z,100220.77
2017-12-16T18:10:36.204Z,100221.17
2017-12-16T18:13:05.347Z,100232.42
2017-12-16T18:15:33.709Z,100223.21
2017-12-16T18:18:02.048Z,100230.81
2017-12-16T18:20:30.382Z,100237.44
2017-12-16T18:22:58.768Z,100238.26
2017-12-16T18:25:27.116Z,100235.36
2017-12-16T18:27:55.450Z,100237.23
2017-12-16T18:30:24.587Z,100238.48
2017-12-16T18:32:52.946Z,100249.73
2017-12-16T18:35:22.068Z,100246.73
2017-12-16T18:37:50.498Z,100250.31
2017-12-16T18:40:19.667Z,100252.62
2017-12-16T18:42:48.007Z,100258.61
2017-12-16T18:45:16.385Z,100253.97
2017-12-16T18:47:44.708Z,100250.13
2017-12-16T18:50:13.068Z,100260.97
2017-12-16T18:52:41.418Z,100265.21
2017-12-16T18:55:09.792Z,100265.63
2017-12-16T18:57:38.124Z,100269.14
2017-12-16T19:00:07.244Z,100274.53
2017-12-16T19:02:36.341Z,100274.02
2017-12-16T19:05:05.527Z,100280.33
2017-12-16T19:07:33.892Z,100285.28
2017-12-16T19:10:02.310Z,100290.41
2017-12-16T19:12:30.749Z,100289.91
2017-12-16T19:14:59.074Z,100292.08
2017-12-16T19:17:28.039Z,100293.27
2017-12-16T19:19:56.476Z,100295.98
2017-12-16T19:22:25.587Z,100291.75
2017-12-16T19:24:53.924Z,100294.91
2017-12-16T19:27:22.300Z,100295.44
2017-12-16T19:29:50.652Z,100296.67
2017-12-16T19:32:19.760Z,100303.59
2017-12-16T19:34:48.896Z,100300.89
2017-12-16T19:37:17.226Z,100307.44
2017-12-16T19:39:46.324Z,100312.96
2017-12-16T19:42:15.445Z,100314.17
2017-12-16T19:44:43.792Z,100317.48
2017-12-16T19:47:12.917Z,100316.69
2017-12-16T19:49:41.555Z,100318.35
2017-12-16T19:52:09.892Z,100324.31
2017-12-16T19:54:38.228Z,100324.55
2017-12-16T19:57:07.371Z,100328.98
2017-12-16T19:59:36.457Z,100329.45
2017-12-16T20:02:04.788Z,100333.62
2017-12-16T20:04:33.922Z,100331.77
2017-12-16T20:07:02.262Z,100337.34
2017-12-16T20:09:31.362Z,100333.23
2017-12-16T20:11:59.733Z,100337.98
2017-12-16T20:14:28.862Z,100340.84
2017-12-16T20:16:57.180Z,100336.27
2017-12-16T20:19:25.556Z,100336.22
2017-12-16T20:21:53.885Z,100340.03
2017-12-16T20:24:22.209Z,100343.26
2017-12-16T20:26:50.564Z,100341.17
2017-12-16T20:29:18.900Z,100337.19
2017-12-16T20:31:48.013Z,100337.89
2017-12-16T20:34:16.354Z,100341.45
2017-12-16T20:36:44.765Z,100345.66
2017-12-16T20:39:13.162Z,100339.53
2017-12-16T20:41:41.547Z,100342.20
2017-12-16T20:46:44.566Z,100344.77
2017-12-16T20:49:12.923Z,100350.85
2017-12-16T20:51:42.159Z,100342.52
2017-12-16T20:54:10.585Z,100350.83
2017-12-16T20:56:38.932Z,100346.21
2017-12-16T20:59:07.285Z,100350.02
2017-12-16T21:01:35.763Z,100355.45
2017-12-16T21:04:04.139Z,100351.83
2017-12-16T21:06:32.473Z,100360.20
2017-12-16T21:09:00.841Z,100364.74
2017-12-16T21:11:30.300Z,100354.23
2017-12-16T21:13:58.759Z,100366.13
2017-12-16T21:16:27.140Z,100369.25
2017-12-16T21:18:55.493Z,100365.38
2017-12-16T21:21:23.846Z,100373.30
2017-12-16T21:23:52.997Z,100374.45
2017-12-16T21:26:21.353Z,100373.50
2017-12-16T21:28:49.711Z,100383.15
2017-12-16T21:31:19.113Z,100384.42
2017-12-16T21:33:47.459Z,100392.91
2017-12-16T21:36:16.575Z,100390.66
2017-12-16T21:38:45.772Z,100399.95
2017-12-16T21:41:14.186Z,100400.13
2017-12-16T21:43:42.564Z,100407.80
2017-12-16T21:46:10.970Z,100403.07
2017-12-16T21:48:39.357Z,100408.21
2017-12-16T21:51:07.779Z,100408.84
2017-12-16T21:53:36.866Z,100410.30
2017-12-16T21:56:05.980Z,100412.31
2017-12-16T21:58:34.319Z,100415.27
2017-12-16T22:01:02.656Z,100419.16
2017-12-16T22:03:31.026Z,100421.77
2017-12-16T22:05:59.359Z,100425.26
2017-12-16T22:08:27.754Z,100422.22
2017-12-16T22:10:56.885Z,100427.12
2017-12-16T22:13:25.230Z,100428.22
2017-12-16T22:15:53.595Z,100434.20
2017-12-16T22:18:21.962Z,100437.84
2017-12-16T22:20:50.293Z,100442.65
2017-12-16T22:23:18.611Z,100448.04
2017-12-16T22:25:46.974Z,100446.00
2017-12-16T22:28:15.338Z,100446.33
2017-12-16T22:30:43.678Z,100450.80
2017-12-16T22:33:12.155Z,100447.05
2017-12-16T22:35:40.511Z,100452.98
2017-12-16T22:38:09.728Z,100464.77
2017-12-16T22:40:38.048Z,100463.53
2017-12-16T22:43:06.507Z,100465.70
2017-12-16T22:45:34.927Z,100463.66
2017-12-16T22:48:03.261Z,100475.58
2017-12-16T22:50:31.742Z,100475.14
2017-12-16T22:53:00.116Z,100476.42
2017-12-16T22:55:28.450Z,100473.25
2017-12-16T22:57:56.772Z,100470.28
2017-12-16T23:00:25.136Z,100483.86
2017-12-16T23:02:53.506Z,100482.70
2017-12-16T23:05:21.808Z,100477.69
2017-12-16T23:07:50.208Z,100480.25
2017-12-16T23:10:18.560Z,100486.34
2017-12-16T23:12:46.896Z,100478.39
2017-12-16T23:15:16.051Z,100475.11
2017-12-16T23:17:44.461Z,100474.18
2017-12-16T23:20:12.791Z,100476.91
2017-12-16T23:22:41.163Z,100480.38
2017-12-16T23:25:09.479Z,100483.63
2017-12-16T23:27:37.812Z,100471.27
2017-12-16T23:30:06.184Z,100471.59
2017-12-16T23:32:34.552Z,100472.91
2017-12-16T23:35:03.675Z,100478.39
2017-12-16T23:37:32.061Z,100478.93
2017-12-16T23:40:00.435Z,100484.15
2017-12-16T23:42:28.813Z,100481.28
2017-12-16T23:44:57.213Z,100481.48
2017-12-16T23:47:25.567Z,100484.51
2017-12-16T23:49:53.892Z,100487.38
2017-12-16T23:52:22.273Z,100494.25
2017-12-16T23:54:50.617Z,100495.08
2017-12-16T23:57:18.958Z,100494.53
2017-12-16T23:59:47.306Z,100492.55
